Time;durP1;ratioP1;P1;durP2;ratioP2;P2;SDS_P1;SDS_P2;PMS_P1;PMS_P2;Temp;Humidity;BMP_temperature;BMP_pressure;BME280_temperature;BME280_humidity;BME280_pressure;Samples;Min_cycle;Max_cycle;Signal;HPM_P1;HPM_P2
2022/01/10 00:01:11;;;;;;;35.05;25.80;;;;;;;8.89;39.32;98805.75;4460323;32;33859;-64
2022/01/10 00:03:39;;;;;;;25.40;14.80;;;;;;;8.79;39.30;98801.16;4457638;32;34125;-66
2022/01/10 00:06:07;;;;;;;33.65;24.00;;;;;;;9.02;38.55;98806.41;4452972;32;33859;-67
2022/01/10 00:08:35;;;;;;;36.03;22.83;;;;;;;8.61;39.55;98810.69;4458159;32;34448;-65
2022/01/10 00:11:02;;;;;;;31.55;19.10;;;;;;;8.61;39.66;98794.69;4460073;32;33878;-65
2022/01/10 00:13:30;;;;;;;29.17;18.55;;;;;;;8.66;39.83;98800.47;4460725;32;33671;-65
2022/01/10 00:15:57;;;;;;;35.13;19.02;;;;;;;8.82;39.30;98800.06;4459647;32;32718;-64
2022/01/10 00:18:25;;;;;;;36.10;28.02;;;;;;;8.63;39.85;98803.41;4462824;32;33813;-65
2022/01/10 00:20:53;;;;;;;25.70;17.52;;;;;;;8.95;38.60;98797.25;4458575;32;33875;-64
2022/01/10 00:23:21;;;;;;;38.13;23.40;;;;;;;8.82;39.22;98800.91;4462050;32;34027;-64
2022/01/10 00:25:49;;;;;;;30.00;20.88;;;;;;;8.86;38.91;98806.88;4459414;32;34138;-63
2022/01/10 00:28:16;;;;;;;25.50;17.02;;;;;;;8.54;40.30;98806.81;4462730;32;33442;-63
2022/01/10 00:30:44;;;;;;;21.80;15.38;;;;;;;8.56;40.17;98811.06;4462165;32;33986;-62
2022/01/10 00:33:11;;;;;;;22.65;15.50;;;;;;;8.85;38.61;98810.50;4462667;32;33703;-63
2022/01/10 00:35:40;;;;;;;33.20;23.95;;;;;;;8.73;39.55;98811.50;4462193;32;32521;-61
2022/01/10 00:38:07;;;;;;;29.10;20.77;;;;;;;8.64;39.59;98813.13;4464047;32;34864;-62
2022/01/10 00:40:36;;;;;;;27.45;17.95;;;;;;;8.42;40.44;98808.69;4457433;32;33964;-62
2022/01/10 00:43:03;;;;;;;37.47;27.25;;;;;;;8.28;40.63;98819.56;4457584;32;34177;-63
2022/01/10 00:45:31;;;;;;;24.60;17.73;;;;;;;8.52;40.24;98811.44;4460747;32;33675;-62
2022/01/10 00:48:00;;;;;;;29.85;17.48;;;;;;;8.73;39.36;98809.72;4462588;32;33637;-63
2022/01/10 00:50:28;;;;;;;21.20;13.23;;;;;;;8.81;38.87;98817.06;4460435;32;33439;-61
2022/01/10 00:52:57;;;;;;;24.65;17.00;;;;;;;8.79;38.83;98814.50;4469768;32;34080;-63
2022/01/10 00:55:25;;;;;;;25.62;17.35;;;;;;;8.69;39.05;98812.72;4465377;32;32461;-63
2022/01/10 00:57:53;;;;;;;32.08;24.33;;;;;;;8.34;40.41;98819.91;4467118;32;34428;-61
2022/01/10 01:00:21;;;;;;;27.33;17.83;;;;;;;8.25;40.77;98820.66;4464948;32;35657;-62
2022/01/10 01:02:49;;;;;;;21.73;13.13;;;;;;;8.24;40.60;98823.44;4466277;32;33632;-62
2022/01/10 01:05:19;;;;;;;26.67;18.30;;;;;;;8.46;39.79;98814.59;4466765;32;33859;-62
2022/01/10 01:07:46;;;;;;;28.58;21.62;;;;;;;8.24;40.10;98828.78;4466657;32;33473;-61
2022/01/10 01:10:58;;;;;;;27.08;18.62;;;;;;;8.22;40.43;98830.69;4466445;32;32304;-60
2022/01/10 01:13:30;;;;;;;28.67;16.05;;;;;;;8.49;39.49;98825.88;4462269;32;33431;-62
2022/01/10 01:26:32;;;;;;;28.05;17.45;;;;;;;8.25;40.02;98831.34;4466162;32;34933;-65
2022/01/10 01:29:01;;;;;;;24.52;14.93;;;;;;;8.22;40.01;98825.38;4467782;32;32819;-66
2022/01/10 01:31:28;;;;;;;25.12;16.67;;;;;;;8.26;40.25;98834.84;4466149;32;33917;-66
2022/01/10 01:33:56;;;;;;;25.65;14.73;;;;;;;8.37;39.99;98837.47;4467965;32;34642;-65
2022/01/10 01:36:25;;;;;;;38.20;25.25;;;;;;;8.40;39.79;98837.28;4462397;32;35088;-64
2022/01/10 01:38:54;;;;;;;35.53;25.37;;;;;;;8.34;39.90;98832.41;4463131;32;33320;-64
2022/01/10 01:43:54;;;;;;;25.23;15.98;;;;;;;8.38;39.56;98848.06;4465331;32;35075;-65
2022/01/10 01:46:22;;;;;;;25.98;16.25;;;;;;;8.25;40.36;98838.47;4463707;32;33697;-64
2022/01/10 01:48:50;;;;;;;28.73;19.27;;;;;;;8.13;41.06;98846.47;4459346;32;34675;-65
2022/01/10 01:51:19;;;;;;;32.30;18.73;;;;;;;8.15;40.54;98846.34;4467050;32;33801;-66
2022/01/10 01:53:47;;;;;;;29.95;16.70;;;;;;;8.27;40.29;98837.38;4466914;32;35248;-65
2022/01/10 01:56:16;;;;;;;32.42;22.02;;;;;;;8.19;40.64;98847.81;4466649;32;35353;-66
2022/01/10 01:58:45;;;;;;;29.20;18.87;;;;;;;8.23;40.69;98840.41;4468012;32;34796;-70
2022/01/10 02:01:16;;;;;;;29.33;18.62;;;;;;;8.20;40.75;98844.16;4465592;32;32487;-65
2022/01/10 02:03:45;;;;;;;26.75;17.42;;;;;;;8.10;41.15;98841.38;4467838;32;33859;-66
2022/01/10 02:06:14;;;;;;;31.75;18.10;;;;;;;8.01;41.46;98846.59;4465369;32;33792;-66
2022/01/10 02:08:42;;;;;;;29.08;20.75;;;;;;;8.20;40.78;98838.84;4467217;32;33185;-66
2022/01/10 02:11:12;;;;;;;42.03;32.70;;;;;;;8.20;40.94;98840.66;4467625;32;32715;-65
2022/01/10 02:13:41;;;;;;;27.37;18.52;;;;;;;8.16;40.96;98848.91;4467869;32;35165;-65
2022/01/10 02:16:15;;;;;;;38.83;22.87;;;;;;;7.94;41.73;98839.06;4467777;32;33641;-64
2022/01/10 02:18:44;;;;;;;37.90;30.67;;;;;;;8.08;41.45;98843.31;4468867;32;34488;-64
2022/01/10 02:21:14;;;;;;;31.92;21.60;;;;;;;8.23;40.98;98835.94;4463549;32;34587;-64
2022/01/10 02:23:42;;;;;;;31.52;20.50;;;;;;;8.36;40.34;98846.47;4469475;32;33157;-65
2022/01/10 02:26:13;;;;;;;28.33;15.60;;;;;;;8.30;40.45;98837.13;4465749;32;34601;-64
2022/01/10 02:28:42;;;;;;;29.58;18.15;;;;;;;8.35;40.27;98842.13;4464599;32;32907;-65
2022/01/10 02:31:09;;;;;;;41.88;30.83;;;;;;;8.23;40.69;98832.41;4467525;32;32862;-64
2022/01/10 02:33:37;;;;;;;41.15;31.05;;;;;;;8.24;40.67;98834.09;4455916;32;33935;-65
2022/01/10 02:38:33;;;;;;;31.27;21.23;;;;;;;8.40;40.06;98842.59;4462329;32;35712;-65
2022/01/10 02:41:01;;;;;;;28.12;17.70;;;;;;;8.39;39.52;98838.25;4462830;32;33687;-65
2022/01/10 02:43:29;;;;;;;40.17;30.27;;;;;;;8.19;39.96;98841.63;4460521;32;34118;-66
2022/01/10 02:45:57;;;;;;;25.88;17.92;;;;;;;8.23;39.79;98841.25;4464557;32;32469;-64
2022/01/10 02:48:25;;;;;;;35.83;22.35;;;;;;;8.24;39.76;98842.09;4462563;32;33315;-64
2022/01/10 02:50:53;;;;;;;32.97;22.00;;;;;;;8.12;40.11;98844.78;4464864;32;33785;-64
2022/01/10 02:53:20;;;;;;;31.27;21.40;;;;;;;7.93;40.52;98839.22;4464672;32;34102;-63
2022/01/10 02:55:48;;;;;;;34.80;20.00;;;;;;;7.83;40.62;98843.53;4464884;32;34876;-64
2022/01/10 02:58:15;;;;;;;32.22;23.80;;;;;;;7.88;40.54;98844.88;4460023;32;33229;-65
2022/01/10 03:00:43;;;;;;;35.40;22.10;;;;;;;8.03;40.05;98842.84;4462588;32;33859;-65
2022/01/10 03:03:11;;;;;;;26.37;16.85;;;;;;;8.05;40.02;98853.38;4464066;32;33972;-64
2022/01/10 03:05:39;;;;;;;31.12;22.30;;;;;;;7.99;40.18;98852.03;4464393;32;33807;-64
2022/01/10 03:08:06;;;;;;;31.33;20.60;;;;;;;7.70;40.96;98859.63;4462369;32;34983;-64
2022/01/10 03:10:34;;;;;;;38.58;20.37;;;;;;;7.84;40.78;98856.75;4462642;32;32565;-64
2022/01/10 03:13:02;;;;;;;31.80;18.95;;;;;;;8.02;40.38;98859.78;4461936;32;34004;-63
2022/01/10 03:15:30;;;;;;;30.70;22.62;;;;;;;8.12;40.07;98860.78;4461303;32;34688;-63
2022/01/10 03:17:58;;;;;;;35.15;25.00;;;;;;;8.22;39.83;98858.25;4463626;32;32192;-64
2022/01/10 03:20:26;;;;;;;40.58;30.52;;;;;;;8.31;39.68;98864.63;4465107;32;35271;-64
2022/01/10 03:22:54;;;;;;;37.38;21.10;;;;;;;8.29;39.84;98866.59;4463656;32;33770;-63
2022/01/10 03:25:22;;;;;;;34.88;22.67;;;;;;;8.40;39.63;98870.12;4465710;32;33935;-63
2022/01/10 03:27:50;;;;;;;41.00;31.70;;;;;;;8.40;39.70;98861.28;4462315;32;34309;-63
2022/01/10 03:30:17;;;;;;;32.45;21.35;;;;;;;8.48;39.42;98868.69;4464402;32;34992;-65
2022/01/10 03:32:48;;;;;;;39.50;29.85;;;;;;;8.44;39.60;98870.72;4461693;32;33961;-64
2022/01/10 03:35:17;;;;;;;38.30;25.15;;;;;;;8.44;39.63;98875.19;4464277;32;35083;-63
2022/01/10 03:37:44;;;;;;;32.60;22.05;;;;;;;8.43;39.76;98878.84;4463844;32;32653;-64
2022/01/10 03:40:12;;;;;;;42.67;27.75;;;;;;;8.42;39.68;98875.34;4464776;32;34776;-64
2022/01/10 03:42:40;;;;;;;34.38;21.08;;;;;;;8.73;39.07;98879.06;4463302;32;35204;-63
2022/01/10 03:45:08;;;;;;;40.47;27.92;;;;;;;8.84;38.76;98880.84;4465001;32;33836;-64
2022/01/10 03:47:35;;;;;;;43.80;32.75;;;;;;;8.92;38.75;98881.06;4462747;32;33631;-65
2022/01/10 03:50:05;;;;;;;42.22;31.77;;;;;;;9.02;38.49;98887.38;4463235;32;34805;-65
2022/01/10 03:52:33;;;;;;;30.77;20.85;;;;;;;9.07;38.79;98889.66;4461063;32;33996;-65
2022/01/10 03:55:00;;;;;;;38.75;30.05;;;;;;;8.90;39.54;98899.03;4459852;32;33862;-67
2022/01/10 03:57:28;;;;;;;36.53;24.92;;;;;;;9.08;39.11;98902.87;4464401;32;34281;-65
2022/01/10 03:59:56;;;;;;;41.15;30.90;;;;;;;9.46;38.45;98898.00;4463741;32;33633;-65
2022/01/10 04:02:26;;;;;;;40.28;30.10;;;;;;;9.49;38.39;98903.94;4463017;32;35437;-64
2022/01/10 04:04:54;;;;;;;42.03;30.83;;;;;;;9.77;37.79;98901.63;4463169;32;33694;-64
2022/01/10 04:07:21;;;;;;;46.05;34.03;;;;;;;9.94;37.60;98902.84;4463942;32;33481;-66
2022/01/10 04:09:49;;;;;;;43.75;32.33;;;;;;;10.26;36.57;98911.63;4465398;32;33867;-66
2022/01/10 04:12:17;;;;;;;43.83;31.58;;;;;;;10.31;36.45;98908.59;4462744;32;33947;-65
2022/01/10 04:14:44;;;;;;;40.25;30.35;;;;;;;10.41;36.29;98909.47;4459853;32;32805;-64
2022/01/10 04:17:13;;;;;;;41.80;29.92;;;;;;;10.56;36.06;98906.41;4462290;32;32148;-64
2022/01/10 04:19:41;;;;;;;42.05;32.47;;;;;;;10.61;35.91;98918.41;4463152;32;33474;-65
2022/01/10 04:22:11;;;;;;;45.95;33.00;;;;;;;10.76;35.35;98918.91;4465421;32;33995;-66
2022/01/10 04:24:38;;;;;;;41.30;31.62;;;;;;;10.59;35.96;98922.19;4466455;32;34329;-64
2022/01/10 04:27:06;;;;;;;40.95;32.95;;;;;;;10.68;35.90;98914.22;4466247;32;34831;-64
2022/01/10 04:29:34;;;;;;;44.33;31.67;;;;;;;10.81;35.51;98923.84;4465071;32;33513;-67
2022/01/10 04:32:03;;;;;;;43.90;32.67;;;;;;;10.84;35.46;98919.06;4465556;32;34080;-66
2022/01/10 04:34:31;;;;;;;43.28;32.35;;;;;;;10.94;35.19;98921.75;4463638;32;33579;-65
2022/01/10 04:36:59;;;;;;;45.55;35.22;;;;;;;11.05;34.86;98920.81;4466836;32;33542;-65
2022/01/10 04:39:26;;;;;;;44.03;31.05;;;;;;;11.02;34.92;98931.81;4465386;32;33511;-66
2022/01/10 04:41:54;;;;;;;42.58;32.85;;;;;;;10.86;35.60;98926.97;4466366;32;34063;-67
2022/01/10 04:44:22;;;;;;;46.37;32.80;;;;;;;11.12;34.85;98927.31;4465279;32;34016;-67
2022/01/10 04:46:51;;;;;;;46.60;33.35;;;;;;;10.81;35.55;98930.03;4462847;32;33501;-66
2022/01/10 04:49:24;;;;;;;42.33;32.28;;;;;;;11.06;34.80;98933.22;4460856;32;34902;-65
2022/01/10 04:51:53;;;;;;;43.63;31.55;;;;;;;11.16;34.18;98934.06;4465490;32;34021;-65
2022/01/10 04:54:21;;;;;;;43.15;31.83;;;;;;;10.94;35.27;98940.50;4463768;32;33597;-66
2022/01/10 04:56:49;;;;;;;44.63;33.38;;;;;;;11.01;35.09;98944.34;4465645;32;34571;-67
2022/01/10 04:59:17;;;;;;;43.03;32.25;;;;;;;11.11;34.96;98939.00;4464911;32;33980;-67
2022/01/10 05:01:45;;;;;;;48.22;33.92;;;;;;;11.09;35.12;98941.81;4465170;32;33981;-66
2022/01/10 05:04:13;;;;;;;42.88;31.60;;;;;;;11.16;34.51;98947.47;4465581;32;32633;-68
2022/01/10 05:06:42;;;;;;;43.83;31.50;;;;;;;11.08;34.98;98950.00;4463115;32;32176;-65
2022/01/10 05:09:10;;;;;;;41.30;32.55;;;;;;;10.86;35.50;98954.56;4464389;32;35075;-66
2022/01/10 05:11:40;;;;;;;42.00;31.50;;;;;;;11.02;35.18;98953.22;4465745;32;33843;-65
2022/01/10 05:14:08;;;;;;;42.25;33.60;;;;;;;11.19;34.72;98956.06;4463335;32;34657;-67
2022/01/10 05:16:36;;;;;;;46.97;32.67;;;;;;;11.12;34.73;98957.59;4463771;32;33943;-66
2022/01/10 05:19:04;;;;;;;43.42;33.55;;;;;;;11.07;34.61;98951.81;4465467;32;32720;-63
2022/01/10 05:21:31;;;;;;;46.58;33.30;;;;;;;11.01;34.87;98963.09;4465717;32;32457;-67
2022/01/10 05:24:00;;;;;;;42.47;33.00;;;;;;;10.60;36.03;98959.56;4465164;32;34772;-65
2022/01/10 05:26:27;;;;;;;43.53;34.13;;;;;;;11.01;34.92;98962.22;4465744;32;33571;-66
2022/01/10 05:28:55;;;;;;;44.33;33.83;;;;;;;11.02;34.95;98969.28;4465577;32;34996;-68
2022/01/10 05:31:23;;;;;;;41.75;32.67;;;;;;;11.04;34.85;98975.34;4463827;32;33806;-66
2022/01/10 05:33:51;;;;;;;45.28;33.28;;;;;;;11.05;34.77;98974.38;4464748;32;33714;-66
2022/01/10 05:36:19;;;;;;;44.28;34.08;;;;;;;10.75;35.75;98965.37;4465809;32;33467;-67
2022/01/10 05:38:46;;;;;;;45.88;34.10;;;;;;;10.62;36.15;98968.28;4465046;32;33820;-66
2022/01/10 05:41:14;;;;;;;46.70;34.28;;;;;;;10.61;36.13;98973.78;4465212;32;34054;-66
2022/01/10 05:43:43;;;;;;;45.00;33.13;;;;;;;10.78;35.43;98973.13;4465023;32;34076;-66
2022/01/10 05:46:13;;;;;;;46.47;33.88;;;;;;;10.70;35.70;98972.97;4465332;32;34632;-66
2022/01/10 05:48:47;;;;;;;45.45;35.53;;;;;;;10.84;35.25;98983.31;4461181;32;35163;-66
2022/01/10 05:51:15;;;;;;;50.12;35.65;;;;;;;10.82;35.32;98973.72;4465825;32;34036;-66
2022/01/10 05:53:44;;;;;;;48.03;34.55;;;;;;;10.89;34.93;98981.09;4463947;32;33752;-66
2022/01/10 05:56:12;;;;;;;44.50;33.47;;;;;;;11.00;34.40;98979.28;4465552;32;33527;-66
2022/01/10 05:58:43;;;;;;;46.88;35.55;;;;;;;10.72;35.11;98974.53;4464470;32;34699;-65
2022/01/10 06:01:10;;;;;;;46.75;34.17;;;;;;;10.79;35.27;98982.03;4462256;32;34083;-66
2022/01/10 06:03:40;;;;;;;45.63;32.78;;;;;;;10.89;34.73;98989.13;4463903;32;35190;-66
2022/01/10 06:06:08;;;;;;;45.65;33.28;;;;;;;10.81;34.76;98983.56;4464410;32;33615;-66
2022/01/10 06:08:37;;;;;;;45.47;34.10;;;;;;;10.81;34.71;98983.56;4466114;32;33894;-66
2022/01/10 06:11:05;;;;;;;46.65;35.05;;;;;;;10.34;35.78;98985.03;4463800;32;33860;-69
2022/01/10 06:13:33;;;;;;;48.60;34.88;;;;;;;10.58;35.04;98982.91;4465272;32;33915;-67
2022/01/10 06:16:01;;;;;;;44.55;33.33;;;;;;;10.36;35.70;98997.28;4463019;32;33518;-69
2022/01/10 06:18:29;;;;;;;44.55;33.55;;;;;;;10.62;35.24;98995.03;4464874;32;32842;-67
2022/01/10 06:20:56;;;;;;;44.50;34.88;;;;;;;10.55;35.35;98993.88;4465359;32;35150;-67
2022/01/10 06:23:25;;;;;;;48.87;35.28;;;;;;;10.54;35.65;98991.34;4465088;32;32551;-68
2022/01/10 06:25:53;;;;;;;43.03;33.53;;;;;;;10.61;35.20;99000.53;4466325;32;33261;-66
2022/01/10 06:28:22;;;;;;;47.88;35.67;;;;;;;10.53;35.40;98992.31;4466751;32;33521;-65
2022/01/10 06:30:49;;;;;;;47.47;35.05;;;;;;;10.60;34.94;99004.19;4467095;32;34085;-66
2022/01/10 06:33:17;;;;;;;51.30;36.22;;;;;;;10.47;35.43;99007.09;4467097;32;34100;-65
2022/01/10 06:35:45;;;;;;;46.05;36.35;;;;;;;10.44;35.47;99010.03;4466595;32;34589;-66
2022/01/10 06:38:13;;;;;;;50.75;37.45;;;;;;;10.32;35.73;99014.59;4467570;32;32487;-66
2022/01/10 06:40:41;;;;;;;51.28;37.22;;;;;;;10.49;35.54;99016.66;4466174;32;35127;-66
2022/01/10 06:43:08;;;;;;;44.85;36.20;;;;;;;10.60;35.15;99020.25;4466237;32;34765;-65
2022/01/10 06:45:37;;;;;;;46.55;35.65;;;;;;;10.51;35.70;99019.22;4466573;32;33502;-64
2022/01/10 06:48:06;;;;;;;48.83;35.20;;;;;;;10.76;34.65;99025.13;4465580;32;32575;-68
2022/01/10 06:50:35;;;;;;;49.95;38.30;;;;;;;10.50;35.67;99020.19;4467039;32;33983;-66
2022/01/10 06:53:02;;;;;;;50.83;37.53;;;;;;;10.60;35.07;99028.28;4466724;32;35649;-66
2022/01/10 06:55:30;;;;;;;51.08;38.92;;;;;;;10.70;35.09;99032.69;4465488;32;33268;-63
2022/01/10 06:57:58;;;;;;;53.78;38.03;;;;;;;10.70;35.18;99034.53;4466070;32;34355;-67
2022/01/10 07:00:26;;;;;;;49.08;37.72;;;;;;;10.75;34.91;99044.81;4467267;32;33629;-67
2022/01/10 07:02:55;;;;;;;48.40;35.95;;;;;;;10.61;35.65;99046.88;4465337;32;33916;-66
2022/01/10 07:05:22;;;;;;;51.25;37.58;;;;;;;10.52;36.00;99047.66;4466921;32;33485;-67
2022/01/10 07:07:51;;;;;;;50.10;36.67;;;;;;;10.64;35.59;99048.44;4466897;32;34077;-65
2022/01/10 07:10:20;;;;;;;51.30;36.80;;;;;;;10.66;35.45;99047.34;4465900;32;33908;-66
2022/01/10 07:12:47;;;;;;;50.88;34.05;;;;;;;10.78;35.13;99045.41;4466500;32;33679;-67
2022/01/10 07:15:15;;;;;;;46.95;34.63;;;;;;;10.60;35.78;99049.69;4478506;32;34136;-65
2022/01/10 07:17:43;;;;;;;45.08;34.30;;;;;;;10.56;35.74;99054.47;4465518;32;33764;-63
2022/01/10 07:20:12;;;;;;;48.05;34.53;;;;;;;10.46;35.95;99058.88;4467171;32;34268;-66
2022/01/10 07:22:41;;;;;;;45.85;32.83;;;;;;;10.74;35.47;99065.41;4466494;32;34021;-63
2022/01/10 07:25:10;;;;;;;43.17;33.00;;;;;;;10.18;36.71;99071.91;4466513;32;33565;-62
2022/01/10 07:27:38;;;;;;;42.78;33.30;;;;;;;10.74;35.39;99068.06;4463413;32;33985;-64
2022/01/10 07:30:06;;;;;;;46.95;34.67;;;;;;;10.90;34.73;99072.94;4463981;32;34007;-62
2022/01/10 07:32:34;;;;;;;44.58;32.70;;;;;;;10.87;34.54;99079.41;4466216;32;33703;-67
2022/01/10 07:35:01;;;;;;;42.38;31.15;;;;;;;10.51;35.48;99082.59;4466179;32;33598;-64
2022/01/10 07:37:29;;;;;;;41.75;31.83;;;;;;;10.58;35.11;99097.97;4461060;32;32211;-64
2022/01/10 07:39:57;;;;;;;44.00;33.83;;;;;;;10.95;34.16;99095.69;4466710;32;33879;-64
2022/01/10 07:42:24;;;;;;;40.35;31.17;;;;;;;11.10;33.67;99103.34;4462286;32;34784;-65
2022/01/10 07:44:52;;;;;;;45.15;32.13;;;;;;;11.11;33.38;99103.22;4465207;32;34685;-64
2022/01/10 07:47:20;;;;;;;89.60;58.03;;;;;;;10.91;34.16;99104.97;4465072;32;34942;-66
2022/01/10 07:49:48;;;;;;;87.20;58.15;;;;;;;11.06;33.56;99100.09;4466783;32;34954;-65
2022/01/10 07:52:15;;;;;;;98.60;58.67;;;;;;;11.09;33.60;99105.19;4465615;32;32488;-65
2022/01/10 07:54:44;;;;;;;89.40;56.90;;;;;;;11.06;34.00;99104.59;4466405;32;33228;-65
2022/01/10 07:57:12;;;;;;;65.68;44.22;;;;;;;11.05;34.44;99106.44;4464969;32;32630;-65
2022/01/10 07:59:40;;;;;;;64.37;43.15;;;;;;;11.22;33.44;99107.63;4466151;32;33914;-65
2022/01/10 08:02:10;;;;;;;59.75;41.13;;;;;;;11.33;33.08;99106.69;4465183;32;33864;-65
2022/01/10 08:04:38;;;;;;;45.25;35.03;;;;;;;11.16;34.28;99113.53;4464858;32;33462;-65
2022/01/10 08:07:05;;;;;;;49.00;32.67;;;;;;;11.36;33.27;99103.72;4464552;32;35070;-66
2022/01/10 08:09:33;;;;;;;40.08;30.55;;;;;;;11.60;32.76;99100.72;4466743;32;34055;-65
2022/01/10 08:12:01;;;;;;;47.20;32.58;;;;;;;12.15;30.97;99113.69;4466031;32;33824;-66
2022/01/10 08:14:30;;;;;;;44.47;32.95;;;;;;;12.19;31.32;99112.41;4464732;32;33704;-64
2022/01/10 08:16:59;;;;;;;46.17;35.40;;;;;;;12.27;30.47;99115.25;4464711;32;33793;-63
2022/01/10 08:19:28;;;;;;;46.35;34.13;;;;;;;11.93;30.95;99118.31;4464857;32;33843;-66
2022/01/10 08:21:55;;;;;;;43.35;33.08;;;;;;;11.89;31.34;99109.72;4465897;32;33838;-63
2022/01/10 08:24:24;;;;;;;44.10;33.13;;;;;;;12.33;30.49;99112.03;4465871;32;32786;-65
2022/01/10 08:26:53;;;;;;;44.72;33.63;;;;;;;13.77;28.83;99118.97;4466644;32;33482;-65
2022/01/10 08:29:21;;;;;;;43.28;32.60;;;;;;;14.64;26.64;99108.44;4464860;32;35257;-66
2022/01/10 08:31:49;;;;;;;41.20;31.77;;;;;;;15.33;26.20;99116.66;4462520;32;33927;-66
2022/01/10 08:34:17;;;;;;;41.35;31.12;;;;;;;15.92;25.84;99114.06;4465034;32;34830;-66
2022/01/10 08:36:44;;;;;;;42.62;31.90;;;;;;;15.95;25.30;99119.13;4466366;32;35076;-67
2022/01/10 08:39:12;;;;;;;45.60;34.08;;;;;;;16.01;24.70;99121.16;4465493;32;34966;-65
2022/01/10 08:41:40;;;;;;;42.40;33.40;;;;;;;15.85;24.67;99116.56;4466260;32;32340;-67
2022/01/10 08:44:07;;;;;;;38.47;29.40;;;;;;;15.67;25.60;99121.25;4464607;32;34596;-65
2022/01/10 08:46:35;;;;;;;37.08;28.15;;;;;;;15.11;25.55;99129.66;4465670;32;34603;-64
2022/01/10 08:49:03;;;;;;;36.28;26.08;;;;;;;15.18;25.96;99127.16;4465376;32;33889;-67
2022/01/10 08:51:32;;;;;;;36.55;27.40;;;;;;;15.56;25.08;99127.72;4464272;32;33810;-66
2022/01/10 08:54:02;;;;;;;35.42;25.83;;;;;;;15.50;25.82;99136.44;4464021;32;33242;-66
2022/01/10 08:56:29;;;;;;;33.38;26.87;;;;;;;15.82;24.81;99130.38;4464161;32;32565;-65
2022/01/10 08:58:57;;;;;;;36.38;28.35;;;;;;;15.43;25.35;99141.63;4465557;32;33959;-65
2022/01/10 09:01:26;;;;;;;38.63;28.15;;;;;;;15.19;25.85;99139.66;4464861;32;34995;-65
2022/01/10 09:03:54;;;;;;;33.00;25.67;;;;;;;15.33;25.28;99140.91;4462213;32;33725;-66
2022/01/10 09:06:22;;;;;;;35.08;25.83;;;;;;;15.54;25.30;99143.22;4462707;32;32507;-65
2022/01/10 09:08:50;;;;;;;38.97;27.70;;;;;;;15.40;25.34;99146.50;4464869;32;34311;-65
2022/01/10 09:11:18;;;;;;;36.25;26.10;;;;;;;14.67;26.29;99145.00;4462746;32;33921;-65
2022/01/10 09:13:46;;;;;;;31.98;23.60;;;;;;;14.76;26.35;99153.97;4466997;32;32361;-66
2022/01/10 09:16:14;;;;;;;29.77;22.73;;;;;;;15.29;25.76;99150.34;4466416;32;33713;-65
2022/01/10 09:18:42;;;;;;;36.20;25.20;;;;;;;16.06;25.40;99154.75;4466175;32;34984;-65
2022/01/10 09:21:10;;;;;;;31.30;22.65;;;;;;;16.89;23.47;99148.50;4466325;32;33927;-66
2022/01/10 09:23:37;;;;;;;31.90;23.15;;;;;;;17.37;23.14;99152.12;4466362;32;33596;-67
2022/01/10 09:26:05;;;;;;;27.62;20.77;;;;;;;17.57;22.97;99165.28;4466505;32;35146;-66
2022/01/10 09:28:33;;;;;;;28.33;21.40;;;;;;;17.53;22.92;99163.91;4467798;32;34015;-67
2022/01/10 09:31:01;;;;;;;28.50;21.27;;;;;;;17.05;23.32;99161.16;4466004;32;33814;-66
2022/01/10 09:33:29;;;;;;;28.65;20.98;;;;;;;18.54;21.48;99163.13;4466781;32;33155;-67
2022/01/10 09:35:56;;;;;;;26.80;19.60;;;;;;;19.45;20.11;99154.03;4467981;32;33716;-67
2022/01/10 09:38:24;;;;;;;32.35;24.00;;;;;;;19.91;19.67;99150.34;4465896;32;34155;-66
2022/01/10 09:40:52;;;;;;;29.83;22.70;;;;;;;20.37;19.42;99144.59;4467452;32;34891;-66
2022/01/10 09:43:19;;;;;;;23.38;17.62;;;;;;;19.36;20.20;99146.16;4466096;32;32018;-67
2022/01/10 09:45:48;;;;;;;22.90;15.70;;;;;;;18.52;20.49;99151.62;4462712;32;33821;-67
2022/01/10 09:48:16;;;;;;;20.73;14.90;;;;;;;18.21;21.85;99151.66;4467534;32;35034;-68
2022/01/10 09:50:43;;;;;;;18.67;14.85;;;;;;;17.57;22.14;99151.75;4467629;32;32426;-66
2022/01/10 09:53:12;;;;;;;22.58;15.82;;;;;;;17.46;22.11;99144.81;4466307;32;34252;-66
2022/01/10 09:55:40;;;;;;;20.62;14.40;;;;;;;17.43;21.92;99147.87;4467590;32;32899;-67
2022/01/10 09:58:08;;;;;;;26.45;16.98;;;;;;;17.96;21.87;99145.53;4467825;32;35683;-67
2022/01/10 10:00:36;;;;;;;32.10;23.75;;;;;;;18.91;20.70;99145.25;4463891;32;34896;-66
2022/01/10 10:03:05;;;;;;;28.67;20.90;;;;;;;19.00;21.41;99153.13;4466671;32;33514;-67
2022/01/10 10:05:34;;;;;;;31.40;21.42;;;;;;;19.75;20.31;99146.78;4466692;32;35553;-66
2022/01/10 10:08:03;;;;;;;29.87;22.45;;;;;;;19.86;20.00;99142.75;4467183;32;34088;-67
2022/01/10 10:10:31;;;;;;;34.22;22.85;;;;;;;19.52;20.41;99152.28;4463457;32;34241;-66
2022/01/10 10:12:59;;;;;;;30.35;22.98;;;;;;;20.06;19.95;99153.84;4467073;32;33711;-67
2022/01/10 10:15:31;;;;;;;30.98;22.62;;;;;;;19.88;20.45;99150.72;4468039;32;32482;-67
2022/01/10 10:17:58;;;;;;;34.63;26.27;;;;;;;20.77;19.12;99145.03;4467270;32;33997;-67
2022/01/10 10:20:27;;;;;;;36.53;26.08;;;;;;;20.13;20.13;99148.53;4467337;32;36792;-66
2022/01/10 10:23:15;;;;;;;36.03;25.42;;;;;;;20.34;20.09;99143.09;4467592;32;34459;-67
2022/01/10 10:25:52;;;;;;;33.17;25.00;;;;;;;19.96;20.35;99143.28;4467561;32;33594;-67
2022/01/10 10:28:21;;;;;;;34.67;26.50;;;;;;;19.57;21.05;99149.00;4467280;32;32758;-67
2022/01/10 10:30:56;;;;;;;33.63;23.45;;;;;;;20.27;20.54;99144.91;4467929;32;35186;-67
2022/01/10 10:33:25;;;;;;;;;;;;;;;21.10;19.41;99148.06;4466943;32;31732;-66
2022/01/10 10:36:03;;;;;;;16.10;10.15;;;;;;;20.85;19.66;99142.19;4464858;32;35394;-66
2022/01/10 10:38:31;;;;;;;15.07;10.68;;;;;;;21.21;19.04;99141.22;4461174;32;34160;-67
2022/01/10 10:41:00;;;;;;;31.00;22.40;;;;;;;21.88;18.30;99148.78;4466663;32;33802;-67
2022/01/10 10:43:32;;;;;;;36.05;25.37;;;;;;;22.71;17.62;99138.59;4466924;32;33635;-67
2022/01/10 10:46:01;;;;;;;30.83;22.33;;;;;;;22.27;18.13;99142.69;4464900;32;34781;-67
2022/01/10 10:48:30;;;;;;;35.00;25.45;;;;;;;21.69;19.04;99146.81;4466764;32;33620;-67
2022/01/10 10:50:58;;;;;;;33.53;24.92;;;;;;;20.98;19.58;99142.31;4467926;32;34990;-66
2022/01/10 10:53:28;;;;;;;32.40;23.92;;;;;;;21.13;19.40;99147.66;4467061;32;34242;-67
2022/01/10 10:56:00;;;;;;;28.70;21.85;;;;;;;20.41;20.27;99141.31;4467349;32;33618;-67
2022/01/10 10:58:32;;;;;;;34.30;25.12;;;;;;;20.02;20.78;99152.56;4468341;32;34293;-67
2022/01/10 11:01:00;;;;;;;33.15;24.63;;;;;;;19.99;20.68;99142.06;4466558;32;35007;-67
2022/01/10 11:03:28;;;;;;;30.35;23.62;;;;;;;19.47;21.57;99149.28;4468067;32;33425;-67
2022/01/10 11:05:59;;;;;;;38.15;25.92;;;;;;;20.13;20.71;99148.53;4467699;32;33631;-67
2022/01/10 11:08:31;;;;;;;33.65;25.62;;;;;;;19.66;21.46;99153.34;4463907;32;35937;-67
2022/01/10 11:10:59;;;;;;;37.67;26.12;;;;;;;19.06;22.29;99155.09;4468665;32;33621;-67
2022/01/10 11:13:29;;;;;;;35.63;25.77;;;;;;;19.46;21.79;99158.47;4467078;32;33463;-68
2022/01/10 11:15:57;;;;;;;34.13;25.50;;;;;;;19.45;21.99;99164.06;4467661;32;33649;-67
2022/01/10 11:18:26;;;;;;;34.40;24.33;;;;;;;18.82;22.83;99167.03;4465784;32;32866;-68
2022/01/10 11:20:57;;;;;;;30.27;23.90;;;;;;;18.63;22.80;99171.03;4466295;32;33955;-67
2022/01/10 11:23:39;;;;;;;36.05;24.60;;;;;;;18.88;22.71;99178.19;4475501;32;33638;-67
2022/01/10 11:26:08;;;;;;;33.00;23.73;;;;;;;19.31;22.31;99171.16;4464245;32;35003;-68
2022/01/10 11:28:47;;;;;;;31.75;23.42;;;;;;;19.47;22.04;99170.16;4475818;32;33988;-67
2022/01/10 11:31:34;;;;;;;30.08;22.45;;;;;;;19.65;21.69;99169.84;4463535;32;33678;-67
2022/01/10 11:34:03;;;;;;;29.27;21.60;;;;;;;19.15;22.41;99168.59;4463206;32;34442;-66
2022/01/10 11:36:31;;;;;;;31.08;22.10;;;;;;;19.30;21.79;99169.47;4463891;32;34889;-68
2022/01/10 11:39:00;;;;;;;29.45;22.10;;;;;;;18.61;22.33;99173.06;4464552;32;33812;-68
2022/01/10 11:41:32;;;;;;;25.33;17.83;;;;;;;17.96;23.17;99173.44;4466503;32;33774;-67